Time;durP1;ratioP1;P1;durP2;ratioP2;P2;SDS_P1;SDS_P2;PMS_P1;PMS_P2;Temp;Humidity;BMP_temperature;BMP_pressure;BME280_temperature;BME280_humidity;BME280_pressure;Samples;Min_cycle;Max_cycle;Signal;HPM_P1;HPM_P2
2023/01/01 00:03:33;;;;;;;86.20;41.42;;;;;;;21.91;43.76;100965.28;21042314;28;20475;-62
2023/01/01 00:13:36;;;;;;;84.60;41.63;;;;;;;21.93;44.08;100946.31;21035689;28;20209;-64
2023/01/01 00:23:37;;;;;;;76.80;39.83;;;;;;;21.98;44.18;100949.06;21042324;28;20129;-65
2023/01/01 00:33:42;;;;;;;75.82;37.22;;;;;;;21.98;44.29;100938.75;21044815;28;20083;-64
2023/01/01 00:43:43;;;;;;;65.97;34.22;;;;;;;;;;21021592;28;20465;-64
2023/01/01 00:53:47;;;;;;;71.22;35.72;;;;;;;22.05;45.20;100897.47;21045598;28;20101;-67
2023/01/01 01:03:49;;;;;;;61.22;32.38;;;;;;;22.11;45.02;100858.41;21066523;28;20048;-66
2023/01/01 01:13:52;;;;;;;52.08;29.77;;;;;;;22.11;45.11;100903.84;21072478;28;20105;-65
2023/01/01 01:23:57;;;;;;;49.63;27.05;;;;;;;22.04;44.31;100898.59;21079743;28;20548;-67
2023/01/01 01:34:02;;;;;;;50.50;26.75;;;;;;;22.07;44.33;100903.59;21072354;28;20064;-65
2023/01/01 01:44:26;;;;;;;49.05;26.05;;;;;;;22.04;43.76;100887.47;21075589;28;20097;-66
2023/01/01 01:54:28;;;;;;;40.47;23.85;;;;;;;22.06;44.42;100881.59;21076454;28;20403;-66
2023/01/01 02:04:36;;;;;;;38.08;23.10;;;;;;;21.86;43.10;100832.44;21072487;28;20044;-66
2023/01/01 02:14:37;;;;;;;36.38;22.20;;;;;;;22.05;43.75;100818.63;21073343;28;20044;-66
2023/01/01 02:25:12;;;;;;;36.40;21.10;;;;;;;21.51;42.87;100708.22;21076097;28;20864;-66
2023/01/01 02:35:33;;;;;;;40.17;20.83;;;;;;;22.04;43.33;100814.19;21036140;28;20066;-66
2023/01/01 02:45:35;;;;;;;35.75;20.33;;;;;;;21.99;43.59;100791.91;21074290;28;20051;-65
2023/01/01 02:55:45;;;;;;;31.10;18.48;;;;;;;;;;21059812;28;20043;-72
2023/01/01 03:16:22;;;;;;;32.45;18.55;;;;;;;22.02;42.70;100861.81;21086639;28;20055;-65
2023/01/01 03:26:26;;;;;;;28.67;17.05;;;;;;;21.87;43.27;100810.97;21088290;28;20044;-66
2023/01/01 03:36:34;;;;;;;23.70;15.32;;;;;;;21.82;43.36;100770.88;21072920;28;20048;-66
2023/01/01 03:46:36;;;;;;;27.93;16.07;;;;;;;22.03;43.26;100726.94;21085949;28;20040;-66
2023/01/01 03:56:49;;;;;;;34.97;16.08;;;;;;;21.97;42.77;100693.88;21079635;28;20055;-65
2023/01/01 04:06:54;;;;;;;24.40;14.85;;;;;;;21.79;43.79;100612.69;21073428;28;20032;-62
2023/01/01 04:16:56;;;;;;;24.83;14.00;;;;;;;;;;21043196;28;20079;-64
2023/01/01 04:26:57;;;;;;;29.08;14.15;;;;;;;22.04;43.58;100789.09;21044666;28;20076;-63
2023/01/01 04:36:58;;;;;;;32.90;13.82;;;;;;;21.98;44.86;100793.03;21040790;28;20124;-71
2023/01/01 04:47:00;;;;;;;20.92;12.10;;;;;;;22.13;45.33;100770.66;21052500;28;20047;-65
2023/01/01 04:57:01;;;;;;;21.08;11.90;;;;;;;22.13;44.40;100745.59;21040627;28;20067;-65
2023/01/01 05:07:02;;;;;;;19.67;11.05;;;;;;;22.09;43.49;100727.75;21042977;28;20102;-74
2023/01/01 05:17:04;;;;;;;23.17;11.80;;;;;;;22.16;44.76;100744.97;21023160;28;20170;-77
2023/01/01 05:27:05;;;;;;;25.55;12.20;;;;;;;22.16;44.68;100739.41;21043223;28;20036;-73
2023/01/01 05:37:06;;;;;;;25.60;14.73;;;;;;;22.26;45.77;100767.16;21050438;28;20101;-69
2023/01/01 05:47:08;;;;;;;36.33;14.70;;;;;;;22.29;45.56;100766.59;21040032;28;20035;-68
2023/01/01 05:57:10;;;;;;;41.67;23.75;;;;;;;22.31;47.40;100755.97;21040384;28;20428;-62
2023/01/01 06:07:11;;;;;;;39.88;25.42;;;;;;;22.36;47.27;100774.63;21043144;28;20452;-61
2023/01/01 06:17:15;;;;;;;38.15;24.92;;;;;;;22.44;47.31;100784.28;21059622;28;20040;-62
2023/01/01 06:27:17;;;;;;;34.15;22.35;;;;;;;22.46;47.90;100815.50;21054968;28;20044;-62
2023/01/01 06:37:18;;;;;;;39.08;21.77;;;;;;;22.40;47.36;100811.06;21045551;28;20066;-62
2023/01/01 06:47:19;;;;;;;30.55;19.50;;;;;;;22.50;47.79;100831.34;21066103;28;20371;-60
2023/01/01 06:57:24;;;;;;;27.90;18.33;;;;;;;22.46;47.41;100833.06;21075426;28;20379;-60
2023/01/01 07:07:25;;;;;;;27.65;17.67;;;;;;;22.50;47.79;100852.81;21080076;28;20036;-61
2023/01/01 07:17:27;;;;;;;29.52;17.38;;;;;;;22.49;47.56;100859.50;21079587;28;20044;-61
2023/01/01 07:27:28;;;;;;;29.40;15.25;;;;;;;22.48;47.55;100869.00;21071746;28;20101;-62
2023/01/01 07:37:35;;;;;;;25.13;15.32;;;;;;;22.47;47.06;100884.06;21070547;28;20125;-76
2023/01/01 07:47:36;;;;;;;20.67;14.75;;;;;;;22.46;47.13;100893.56;21079756;28;20040;-65
2023/01/01 07:57:38;;;;;;;25.50;14.05;;;;;;;22.47;47.35;100895.22;21065942;28;20427;-61
2023/01/01 08:07:39;;;;;;;16.35;12.68;;;;;;;22.46;47.15;100910.31;21071836;28;20096;-61
2023/01/01 08:17:41;;;;;;;20.33;13.23;;;;;;;22.37;47.35;100895.31;21072224;28;20098;-62
2023/01/01 08:27:42;;;;;;;18.05;11.45;;;;;;;22.46;47.06;100890.78;21053445;28;20483;-61
2023/01/01 08:37:43;;;;;;;16.38;11.48;;;;;;;22.36;46.90;100918.72;21059640;28;20070;-62
2023/01/01 08:47:45;;;;;;;16.55;11.45;;;;;;;22.44;47.15;100946.00;21068008;28;20097;-61
2023/01/01 08:57:46;;;;;;;15.00;10.00;;;;;;;22.38;47.32;100938.81;21074164;28;20040;-66
2023/01/01 09:07:50;;;;;;;17.05;10.82;;;;;;;22.40;46.87;100947.69;21055095;28;20040;-67
2023/01/01 09:17:51;;;;;;;19.23;10.23;;;;;;;22.41;46.57;100974.47;21076419;28;20093;-68
2023/01/01 09:28:00;;;;;;;14.02;8.95;;;;;;;22.30;45.93;100980.09;21079513;28;20040;-68
2023/01/01 09:38:01;;;;;;;12.93;8.60;;;;;;;22.30;46.27;100985.69;21082270;28;20044;-67
2023/01/01 09:48:10;;;;;;;13.48;9.02;;;;;;;21.82;45.90;100912.94;21084346;28;20043;-68
2023/01/01 09:58:14;;;;;;;;;;;;;;;22.31;45.02;101023.59;21078721;28;20048;-69
2023/01/01 10:08:32;;;;;;;14.82;7.97;;;;;;;22.25;45.35;101026.69;21082865;28;20340;-68
2023/01/01 10:18:37;;;;;;;11.68;8.10;;;;;;;22.31;45.47;101068.22;21080123;28;20079;-68
2023/01/01 10:28:56;;;;;;;9.23;6.95;;;;;;;22.24;44.70;101076.03;21092895;28;20044;-67
2023/01/01 10:38:58;;;;;;;11.45;7.60;;;;;;;22.26;45.14;101068.22;21097336;28;21240;-67
2023/01/01 10:49:05;;;;;;;7.75;6.38;;;;;;;22.23;44.88;101077.16;21092535;28;20105;-68
2023/01/01 10:59:37;;;;;;;9.30;6.75;;;;;;;22.20;44.78;101086.09;21093309;28;20044;-68
2023/01/01 11:09:39;;;;;;;13.70;6.63;;;;;;;22.08;45.04;101057.69;21081558;28;20051;-68
2023/01/01 11:19:41;;;;;;;9.35;5.97;;;;;;;22.20;45.07;101086.09;21090093;28;20048;-67
2023/01/01 11:29:42;;;;;;;7.78;5.00;;;;;;;22.28;44.53;101105.03;21087194;28;20040;-67
2023/01/01 11:39:50;;;;;;;8.70;4.97;;;;;;;22.30;44.30;101147.38;21095858;28;20101;-67
2023/01/01 11:49:58;;;;;;;5.55;4.80;;;;;;;22.38;44.62;101184.16;21086824;28;20586;-67
2023/01/01 12:00:06;;;;;;;;;;;;;;;22.43;43.74;101200.84;21091961;28;20040;-68
2023/01/01 12:10:23;;;;;;;6.38;4.30;;;;;;;22.47;43.94;101202.78;21082341;28;19966;-69
2023/01/01 12:20:29;;;;;;;7.68;4.60;;;;;;;22.50;44.37;101188.28;21085585;28;20441;-68
2023/01/01 12:31:07;;;;;;;5.75;3.92;;;;;;;22.48;44.15;101206.41;21085934;28;20036;-69
2023/01/01 12:41:28;;;;;;;8.57;4.50;;;;;;;22.56;44.62;101230.94;21081218;28;20039;-69
2023/01/01 12:51:45;;;;;;;4.80;4.30;;;;;;;22.54;44.48;101249.88;21079907;28;20662;-67
2023/01/01 13:01:52;;;;;;;5.00;4.00;;;;;;;22.61;44.55;101267.16;21071464;28;20047;-68
2023/01/01 13:12:07;;;;;;;5.82;3.35;;;;;;;22.61;44.56;101278.31;21083765;28;20040;-68
2023/01/01 13:22:26;;;;;;;5.05;3.28;;;;;;;22.60;44.16;101312.91;21053138;28;20074;-67
2023/01/01 13:32:47;;;;;;;4.00;3.50;;;;;;;22.51;44.74;101315.44;21077454;28;20078;-68
2023/01/01 13:42:54;;;;;;;3.92;3.50;;;;;;;22.63;44.45;101359.75;21078925;28;20100;-70
2023/01/01 13:53:18;;;;;;;4.05;3.35;;;;;;;22.60;44.30;101363.13;21079306;28;20032;-68
2023/01/01 14:03:26;;;;;;;3.92;2.83;;;;;;;22.66;44.41;101394.63;21081286;28;20097;-68
2023/01/01 14:13:39;;;;;;;3.58;2.95;;;;;;;22.66;43.80;101434.50;21072464;28;20368;-68
2023/01/01 14:23:47;;;;;;;3.67;3.13;;;;;;;22.56;43.78;101398.28;21065034;28;20034;-68
2023/01/01 14:33:48;;;;;;;3.93;3.23;;;;;;;22.71;43.79;101431.72;21075460;28;20036;-68
2023/01/01 14:43:52;;;;;;;6.28;3.80;;;;;;;22.74;44.27;101424.75;21056319;28;20358;-67
2023/01/01 14:53:58;;;;;;;5.72;3.63;;;;;;;22.75;44.04;101463.53;21068739;28;20456;-68
2023/01/01 15:04:14;;;;;;;8.45;3.90;;;;;;;22.73;43.99;101468.56;21063677;28;20101;-67
2023/01/01 15:14:34;;;;;;;5.32;4.28;;;;;;;22.71;43.65;101475.53;21074041;28;20101;-68
2023/01/01 15:24:40;;;;;;;10.18;4.05;;;;;;;22.76;44.26;101479.13;21066825;28;20040;-68
2023/01/01 15:34:51;;;;;;;11.80;3.90;;;;;;;22.76;44.60;101451.22;21077802;28;20077;-66
2023/01/01 15:44:53;;;;;;;9.77;4.55;;;;;;;22.79;44.33;101456.25;21066320;28;20070;-67
2023/01/01 15:54:54;;;;;;;9.52;4.35;;;;;;;22.83;44.21;101451.78;21073009;28;20093;-67
2023/01/01 16:04:56;;;;;;;9.88;3.97;;;;;;;22.89;44.19;101421.09;21070006;28;20119;-68
2023/01/01 16:15:00;;;;;;;9.20;4.93;;;;;;;22.89;44.76;101446.19;21079090;28;20040;-68
2023/01/01 16:25:22;;;;;;;8.95;4.57;;;;;;;22.87;44.31;101445.66;21081129;28;20036;-67
2023/01/01 16:35:24;;;;;;;9.45;4.25;;;;;;;22.52;46.97;101392.41;21067781;28;20052;-67
2023/01/01 16:45:25;;;;;;;8.43;3.65;;;;;;;22.88;45.80;101427.78;21054543;28;20101;-67
2023/01/01 16:55:26;;;;;;;10.90;3.58;;;;;;;22.74;44.40;101405.22;21052555;28;20028;-67
2023/01/01 17:05:28;;;;;;;7.25;3.10;;;;;;;22.92;43.38;101414.97;21062456;28;20047;-67
2023/01/01 17:15:30;;;;;;;11.43;4.05;;;;;;;22.98;43.40;101397.09;21061760;28;20044;-65
2023/01/01 17:25:31;;;;;;;16.00;4.20;;;;;;;23.02;44.52;101387.03;21054910;28;20044;-66
2023/01/01 17:35:34;;;;;;;10.43;3.75;;;;;;;22.91;44.48;101357.47;21081324;28;20048;-66
2023/01/01 17:45:36;;;;;;;9.45;3.83;;;;;;;22.96;44.95;101368.66;21074197;28;20036;-69
2023/01/01 17:55:37;;;;;;;10.93;3.15;;;;;;;23.18;45.03;101408.16;21074353;28;20077;-68
2023/01/01 18:05:39;;;;;;;14.45;2.97;;;;;;;23.15;44.85;101380.84;21079792;28;20109;-70
2023/01/01 18:15:40;;;;;;;10.13;3.05;;;;;;;23.23;44.33;101382.19;21074987;28;20048;-68
2023/01/01 18:25:42;;;;;;;5.15;2.25;;;;;;;23.10;44.38;101357.72;21060422;28;20093;-70
2023/01/01 18:35:43;;;;;;;6.53;2.38;;;;;;;23.22;43.84;101370.19;21064835;28;20048;-72
2023/01/01 18:45:44;;;;;;;7.88;2.35;;;;;;;23.31;43.64;101368.47;21080301;28;20495;-70
2023/01/01 18:55:50;;;;;;;8.25;2.17;;;;;;;23.38;43.17;101373.75;21086880;28;20078;-67
2023/01/01 19:05:52;;;;;;;2.83;2.15;;;;;;;23.39;43.26;101369.00;21080241;28;20050;-69
2023/01/01 19:16:18;;;;;;;6.65;2.30;;;;;;;23.17;43.20;101339.50;21074627;28;20040;-69
2023/01/01 19:26:29;;;;;;;113.60;8.45;;;;;;;23.38;42.97;101372.94;21072516;28;20105;-65
2023/01/01 19:36:30;;;;;;;8.10;2.40;;;;;;;23.46;44.13;101375.09;21057878;28;20036;-73
2023/01/01 19:46:32;;;;;;;8.68;2.33;;;;;;;23.38;44.55;101362.59;21062262;28;20032;-75
2023/01/01 19:56:36;;;;;;;15.60;3.38;;;;;;;23.49;45.10;101386.53;21055363;28;20050;-68
2023/01/01 20:06:38;;;;;;;10.23;2.85;;;;;;;23.58;45.02;101400.72;21050418;28;20707;-69
2023/01/01 20:16:43;;;;;;;11.38;2.45;;;;;;;23.51;44.43;101377.88;21055315;28;20113;-66
2023/01/01 20:26:44;;;;;;;10.85;2.60;;;;;;;23.62;44.89;101385.06;21051087;28;20101;-74
2023/01/01 20:47:10;;;;;;;16.20;2.30;;;;;;;23.55;45.70;101362.22;21053788;28;20039;-73
2023/01/01 20:57:11;;;;;;;14.95;2.58;;;;;;;23.66;46.81;101391.78;21057468;28;20044;-74
2023/01/01 21:07:13;;;;;;;10.50;2.60;;;;;;;23.75;46.80;101401.22;21067260;28;20048;-66
2023/01/01 21:17:20;;;;;;;10.20;2.60;;;;;;;23.78;46.32;101397.84;21060577;28;20059;-72
2023/01/01 21:27:32;;;;;;;13.00;2.97;;;;;;;23.78;46.26;101402.63;21056542;28;20097;-70
2023/01/01 21:37:46;;;;;;;13.32;4.35;;;;;;;23.86;47.74;101395.56;21052658;28;20101;-67
2023/01/01 21:47:50;;;;;;;15.50;4.30;;;;;;;23.87;48.28;101406.47;21041703;28;20044;-64
2023/01/01 21:59:24;;;;;;;15.07;9.43;;;;;;;23.91;48.05;101426.25;21029621;28;20052;-64
2023/01/01 22:08:23;;;;;;;21.40;13.27;;;;;;;23.88;46.61;101429.66;21064685;28;20040;-71
2023/01/01 22:18:30;;;;;;;37.83;29.58;;;;;;;23.77;47.80;101421.31;21069428;28;20042;-80
2023/01/01 22:28:44;;;;;;;42.97;34.50;;;;;;;23.69;47.81;101415.53;21056258;28;20089;-68
2023/01/01 22:38:46;;;;;;;50.97;33.00;;;;;;;24.03;50.40;101469.53;21057767;28;20113;-64
2023/01/01 22:48:47;;;;;;;81.80;23.90;;;;;;;23.92;49.08;101475.47;21051946;28;20090;-66
2023/01/01 22:58:48;;;;;;;38.00;22.23;;;;;;;24.15;50.07;101521.47;21028972;28;20106;-64
2023/01/01 23:08:51;;;;;;;27.25;18.65;;;;;;;24.18;49.47;101535.69;21045508;28;20532;-65
2023/01/01 23:18:53;;;;;;;23.15;16.65;;;;;;;24.08;49.83;101532.97;21058770;28;20043;-66
2023/01/01 23:28:54;;;;;;;26.58;15.60;;;;;;;24.18;49.66;101555.25;21052483;28;20491;-64
2023/01/01 23:38:56;;;;;;;24.92;13.82;;;;;;;24.21;49.74;101565.88;21058130;28;20048;-65
2023/01/01 23:49:02;;;;;;;27.83;12.95;;;;;;;24.21;50.39;101565.88;21076881;28;20043;-69
2023/01/01 23:59:04;;;;;;;28.20;12.43;;;;;;;24.25;51.07;101566.97;21050808;28;20059;-62
